sensor_id;sensor_type;location;lat;lon;timestamp;P1;durP1;ratioP1;P2;durP2;ratioP2
63807;SDS011;49961;43.970;22.868;2024-03-17T00:00:35;12.75;;;5.90;;
63807;SDS011;49961;43.970;22.868;2024-03-17T00:01:36;10.90;;;5.37;;
63807;SDS011;49961;43.970;22.868;2024-03-17T00:02:37;7.53;;;4.75;;
63807;SDS011;49961;43.970;22.868;2024-03-17T00:03:37;10.20;;;5.77;;
63807;SDS011;49961;43.970;22.868;2024-03-17T00:04:38;10.17;;;5.07;;
63807;SDS011;49961;43.970;22.868;2024-03-17T00:05:39;7.43;;;4.77;;
63807;SDS011;49961;43.970;22.868;2024-03-17T00:06:39;8.23;;;5.17;;
63807;SDS011;49961;43.970;22.868;2024-03-17T00:07:40;8.23;;;4.70;;
63807;SDS011;49961;43.970;22.868;2024-03-17T00:08:40;10.73;;;4.90;;
63807;SDS011;49961;43.970;22.868;2024-03-17T00:09:41;8.60;;;5.23;;
63807;SDS011;49961;43.970;22.868;2024-03-17T00:10:41;9.00;;;4.97;;
63807;SDS011;49961;43.970;22.868;2024-03-17T00:11:42;7.60;;;5.23;;
63807;SDS011;49961;43.970;22.868;2024-03-17T00:12:42;9.27;;;5.30;;
63807;SDS011;49961;43.970;22.868;2024-03-17T00:13:43;11.77;;;5.43;;
63807;SDS011;49961;43.970;22.868;2024-03-17T00:14:43;11.10;;;5.53;;
63807;SDS011;49961;43.970;22.868;2024-03-17T00:15:45;10.02;;;4.53;;
63807;SDS011;49961;43.970;22.868;2024-03-17T00:16:45;8.00;;;4.37;;
63807;SDS011;49961;43.970;22.868;2024-03-17T00:17:45;8.70;;;5.27;;
63807;SDS011;49961;43.970;22.868;2024-03-17T00:18:46;7.10;;;5.00;;
63807;SDS011;49961;43.970;22.868;2024-03-17T00:19:47;7.93;;;5.00;;
63807;SDS011;49961;43.970;22.868;2024-03-17T00:20:47;10.83;;;5.00;;
63807;SDS011;49961;43.970;22.868;2024-03-17T00:21:48;8.50;;;5.00;;
63807;SDS011;49961;43.970;22.868;2024-03-17T00:22:50;9.15;;;5.25;;
63807;SDS011;49961;43.970;22.868;2024-03-17T00:23:51;10.47;;;5.20;;
63807;SDS011;49961;43.970;22.868;2024-03-17T00:24:51;9.47;;;5.80;;
63807;SDS011;49961;43.970;22.868;2024-03-17T00:25:52;15.10;;;5.77;;
63807;SDS011;49961;43.970;22.868;2024-03-17T00:26:54;8.65;;;5.13;;
63807;SDS011;49961;43.970;22.868;2024-03-17T00:27:55;7.50;;;5.23;;
63807;SDS011;49961;43.970;22.868;2024-03-17T00:28:57;12.57;;;5.63;;
63807;SDS011;49961;43.970;22.868;2024-03-17T00:29:58;7.97;;;5.00;;
63807;SDS011;49961;43.970;22.868;2024-03-17T00:30:58;11.37;;;7.00;;
63807;SDS011;49961;43.970;22.868;2024-03-17T00:31:59;16.63;;;7.93;;
63807;SDS011;49961;43.970;22.868;2024-03-17T00:32:59;11.53;;;7.20;;
63807;SDS011;49961;43.970;22.868;2024-03-17T00:34:00;16.03;;;8.00;;
63807;SDS011;49961;43.970;22.868;2024-03-17T00:35:01;9.30;;;5.60;;
63807;SDS011;49961;43.970;22.868;2024-03-17T00:36:02;12.33;;;5.87;;
63807;SDS011;49961;43.970;22.868;2024-03-17T00:37:02;11.90;;;6.37;;
63807;SDS011;49961;43.970;22.868;2024-03-17T00:38:03;12.90;;;6.20;;
63807;SDS011;49961;43.970;22.868;2024-03-17T00:39:10;11.63;;;6.78;;
63807;SDS011;49961;43.970;22.868;2024-03-17T00:40:10;14.60;;;6.53;;
63807;SDS011;49961;43.970;22.868;2024-03-17T00:41:11;15.73;;;6.38;;
63807;SDS011;49961;43.970;22.868;2024-03-17T00:42:12;9.43;;;5.93;;
63807;SDS011;49961;43.970;22.868;2024-03-17T00:43:12;10.77;;;6.10;;
63807;SDS011;49961;43.970;22.868;2024-03-17T00:44:13;9.00;;;6.10;;
63807;SDS011;49961;43.970;22.868;2024-03-17T00:45:14;10.70;;;5.73;;
63807;SDS011;49961;43.970;22.868;2024-03-17T00:46:15;8.57;;;5.47;;
63807;SDS011;49961;43.970;22.868;2024-03-17T00:47:17;7.45;;;4.95;;
63807;SDS011;49961;43.970;22.868;2024-03-17T00:48:17;9.07;;;5.57;;
63807;SDS011;49961;43.970;22.868;2024-03-17T00:49:18;11.00;;;5.83;;
63807;SDS011;49961;43.970;22.868;2024-03-17T00:50:18;9.43;;;5.87;;
63807;SDS011;49961;43.970;22.868;2024-03-17T00:51:19;8.20;;;5.30;;
63807;SDS011;49961;43.970;22.868;2024-03-17T00:52:19;9.80;;;5.47;;
63807;SDS011;49961;43.970;22.868;2024-03-17T00:53:20;9.43;;;4.90;;
63807;SDS011;49961;43.970;22.868;2024-03-17T00:54:21;6.68;;;4.13;;
63807;SDS011;49961;43.970;22.868;2024-03-17T00:55:21;8.67;;;4.70;;
63807;SDS011;49961;43.970;22.868;2024-03-17T00:56:22;7.93;;;5.43;;
63807;SDS011;49961;43.970;22.868;2024-03-17T00:57:23;7.23;;;4.67;;
63807;SDS011;49961;43.970;22.868;2024-03-17T00:58:24;8.88;;;6.05;;
63807;SDS011;49961;43.970;22.868;2024-03-17T00:59:24;12.63;;;5.97;;
63807;SDS011;49961;43.970;22.868;2024-03-17T01:00:25;10.90;;;5.40;;
63807;SDS011;49961;43.970;22.868;2024-03-17T01:01:25;7.70;;;4.97;;
63807;SDS011;49961;43.970;22.868;2024-03-17T01:02:26;8.77;;;5.33;;
63807;SDS011;49961;43.970;22.868;2024-03-17T01:03:26;8.27;;;5.20;;
63807;SDS011;49961;43.970;22.868;2024-03-17T01:04:30;7.82;;;4.90;;
63807;SDS011;49961;43.970;22.868;2024-03-17T01:05:33;9.23;;;5.30;;
63807;SDS011;49961;43.970;22.868;2024-03-17T01:06:34;11.50;;;5.73;;
63807;SDS011;49961;43.970;22.868;2024-03-17T01:07:34;10.17;;;5.37;;
63807;SDS011;49961;43.970;22.868;2024-03-17T01:08:35;9.80;;;5.73;;
63807;SDS011;49961;43.970;22.868;2024-03-17T01:09:36;11.67;;;7.60;;
63807;SDS011;49961;43.970;22.868;2024-03-17T01:10:37;8.63;;;5.23;;
63807;SDS011;49961;43.970;22.868;2024-03-17T01:11:38;10.35;;;5.57;;
63807;SDS011;49961;43.970;22.868;2024-03-17T01:12:39;10.57;;;5.90;;
63807;SDS011;49961;43.970;22.868;2024-03-17T01:13:39;8.27;;;5.83;;
63807;SDS011;49961;43.970;22.868;2024-03-17T01:14:41;11.25;;;6.22;;
63807;SDS011;49961;43.970;22.868;2024-03-17T01:15:42;9.67;;;5.30;;
63807;SDS011;49961;43.970;22.868;2024-03-17T01:16:42;8.90;;;5.23;;
63807;SDS011;49961;43.970;22.868;2024-03-17T01:17:43;9.20;;;5.00;;
63807;SDS011;49961;43.970;22.868;2024-03-17T01:18:43;8.73;;;5.43;;
63807;SDS011;49961;43.970;22.868;2024-03-17T01:19:45;8.63;;;5.38;;
63807;SDS011;49961;43.970;22.868;2024-03-17T01:20:46;10.87;;;5.90;;
63807;SDS011;49961;43.970;22.868;2024-03-17T01:21:46;7.80;;;4.63;;
63807;SDS011;49961;43.970;22.868;2024-03-17T01:22:47;7.57;;;5.27;;
63807;SDS011;49961;43.970;22.868;2024-03-17T01:23:48;9.70;;;5.00;;
63807;SDS011;49961;43.970;22.868;2024-03-17T01:24:49;10.07;;;5.70;;
63807;SDS011;49961;43.970;22.868;2024-03-17T01:25:50;8.07;;;5.40;;
63807;SDS011;49961;43.970;22.868;2024-03-17T01:26:50;7.80;;;5.70;;
63807;SDS011;49961;43.970;22.868;2024-03-17T01:27:53;10.67;;;5.97;;
63807;SDS011;49961;43.970;22.868;2024-03-17T01:28:54;10.82;;;6.07;;
63807;SDS011;49961;43.970;22.868;2024-03-17T01:29:54;9.87;;;5.73;;
63807;SDS011;49961;43.970;22.868;2024-03-17T01:30:55;11.77;;;6.17;;
63807;SDS011;49961;43.970;22.868;2024-03-17T01:31:55;11.40;;;5.60;;
63807;SDS011;49961;43.970;22.868;2024-03-17T01:32:56;11.83;;;5.63;;
63807;SDS011;49961;43.970;22.868;2024-03-17T01:33:56;10.40;;;6.17;;
63807;SDS011;49961;43.970;22.868;2024-03-17T01:34:57;11.50;;;5.93;;
63807;SDS011;49961;43.970;22.868;2024-03-17T01:35:57;10.20;;;6.17;;
63807;SDS011;49961;43.970;22.868;2024-03-17T01:36:58;13.53;;;6.00;;
63807;SDS011;49961;43.970;22.868;2024-03-17T01:37:58;9.00;;;5.30;;
63807;SDS011;49961;43.970;22.868;2024-03-17T01:38:59;9.73;;;5.37;;
63807;SDS011;49961;43.970;22.868;2024-03-17T01:40:00;7.53;;;5.30;;
63807;SDS011;49961;43.970;22.868;2024-03-17T01:41:01;13.82;;;5.82;;
63807;SDS011;49961;43.970;22.868;2024-03-17T01:42:02;12.75;;;6.70;;
63807;SDS011;49961;43.970;22.868;2024-03-17T01:43:03;8.88;;;6.05;;
63807;SDS011;49961;43.970;22.868;2024-03-17T01:44:04;9.60;;;5.57;;
63807;SDS011;49961;43.970;22.868;2024-03-17T01:46:17;9.70;;;5.45;;
63807;SDS011;49961;43.970;22.868;2024-03-17T01:47:18;13.80;;;6.30;;
63807;SDS011;49961;43.970;22.868;2024-03-17T01:48:19;9.90;;;6.28;;
63807;SDS011;49961;43.970;22.868;2024-03-17T01:49:20;11.10;;;6.23;;
63807;SDS011;49961;43.970;22.868;2024-03-17T01:50:21;12.15;;;5.82;;
63807;SDS011;49961;43.970;22.868;2024-03-17T01:51:24;9.50;;;5.50;;
63807;SDS011;49961;43.970;22.868;2024-03-17T01:52:25;16.47;;;5.83;;
63807;SDS011;49961;43.970;22.868;2024-03-17T01:53:26;8.60;;;5.20;;
63807;SDS011;49961;43.970;22.868;2024-03-17T01:54:27;9.43;;;5.95;;
63807;SDS011;49961;43.970;22.868;2024-03-17T01:55:27;12.47;;;6.43;;
63807;SDS011;49961;43.970;22.868;2024-03-17T01:56:28;7.83;;;4.90;;
63807;SDS011;49961;43.970;22.868;2024-03-17T01:57:29;7.70;;;5.05;;
63807;SDS011;49961;43.970;22.868;2024-03-17T01:58:30;11.17;;;5.47;;
63807;SDS011;49961;43.970;22.868;2024-03-17T01:59:30;11.13;;;5.93;;
63807;SDS011;49961;43.970;22.868;2024-03-17T02:00:31;9.30;;;5.80;;
63807;SDS011;49961;43.970;22.868;2024-03-17T02:01:33;10.32;;;5.90;;
63807;SDS011;49961;43.970;22.868;2024-03-17T02:02:34;10.03;;;5.37;;
63807;SDS011;49961;43.970;22.868;2024-03-17T02:03:35;12.85;;;5.53;;
63807;SDS011;49961;43.970;22.868;2024-03-17T02:04:36;10.20;;;5.80;;
63807;SDS011;49961;43.970;22.868;2024-03-17T02:05:36;12.43;;;6.17;;
63807;SDS011;49961;43.970;22.868;2024-03-17T02:06:40;8.75;;;5.40;;
63807;SDS011;49961;43.970;22.868;2024-03-17T02:07:41;8.73;;;5.70;;
63807;SDS011;49961;43.970;22.868;2024-03-17T02:08:51;10.47;;;5.77;;
63807;SDS011;49961;43.970;22.868;2024-03-17T02:09:55;10.98;;;6.18;;
63807;SDS011;49961;43.970;22.868;2024-03-17T02:10:57;9.23;;;6.20;;
63807;SDS011;49961;43.970;22.868;2024-03-17T02:11:57;10.87;;;5.77;;
63807;SDS011;49961;43.970;22.868;2024-03-17T02:12:58;13.83;;;6.30;;
63807;SDS011;49961;43.970;22.868;2024-03-17T02:13:59;10.15;;;6.28;;
63807;SDS011;49961;43.970;22.868;2024-03-17T02:15:01;19.95;;;7.18;;
63807;SDS011;49961;43.970;22.868;2024-03-17T02:16:05;16.63;;;6.13;;
63807;SDS011;49961;43.970;22.868;2024-03-17T02:17:05;16.83;;;6.27;;
63807;SDS011;49961;43.970;22.868;2024-03-17T02:18:06;14.27;;;5.37;;
63807;SDS011;49961;43.970;22.868;2024-03-17T02:19:06;9.43;;;5.67;;
63807;SDS011;49961;43.970;22.868;2024-03-17T02:20:07;14.30;;;6.40;;
63807;SDS011;49961;43.970;22.868;2024-03-17T02:21:08;12.03;;;6.07;;
63807;SDS011;49961;43.970;22.868;2024-03-17T02:22:15;11.63;;;6.20;;
63807;SDS011;49961;43.970;22.868;2024-03-17T02:23:17;15.25;;;6.47;;
63807;SDS011;49961;43.970;22.868;2024-03-17T02:24:18;11.68;;;5.95;;
63807;SDS011;49961;43.970;22.868;2024-03-17T02:25:19;15.07;;;5.53;;
63807;SDS011;49961;43.970;22.868;2024-03-17T02:26:19;10.63;;;5.40;;
63807;SDS011;49961;43.970;22.868;2024-03-17T02:27:21;12.45;;;5.90;;
63807;SDS011;49961;43.970;22.868;2024-03-17T02:28:21;9.93;;;5.13;;
63807;SDS011;49961;43.970;22.868;2024-03-17T02:29:22;12.63;;;6.57;;
63807;SDS011;49961;43.970;22.868;2024-03-17T02:30:22;13.33;;;5.73;;
63807;SDS011;49961;43.970;22.868;2024-03-17T02:31:23;11.50;;;5.57;;
63807;SDS011;49961;43.970;22.868;2024-03-17T02:32:23;11.20;;;5.77;;
63807;SDS011;49961;43.970;22.868;2024-03-17T02:33:25;12.00;;;5.85;;
63807;SDS011;49961;43.970;22.868;2024-03-17T02:34:26;13.70;;;6.23;;
63807;SDS011;49961;43.970;22.868;2024-03-17T02:35:26;7.93;;;5.13;;
63807;SDS011;49961;43.970;22.868;2024-03-17T02:36:27;10.93;;;6.00;;
63807;SDS011;49961;43.970;22.868;2024-03-17T02:37:27;10.03;;;5.57;;
63807;SDS011;49961;43.970;22.868;2024-03-17T02:38:28;11.33;;;5.23;;
63807;SDS011;49961;43.970;22.868;2024-03-17T02:39:47;10.32;;;5.70;;
63807;SDS011;49961;43.970;22.868;2024-03-17T02:40:47;10.93;;;5.90;;
63807;SDS011;49961;43.970;22.868;2024-03-17T02:41:48;10.23;;;5.10;;
63807;SDS011;49961;43.970;22.868;2024-03-17T02:42:49;11.15;;;5.43;;
63807;SDS011;49961;43.970;22.868;2024-03-17T02:43:50;8.75;;;5.38;;
63807;SDS011;49961;43.970;22.868;2024-03-17T02:44:51;9.80;;;5.77;;
63807;SDS011;49961;43.970;22.868;2024-03-17T02:45:51;10.63;;;5.77;;
63807;SDS011;49961;43.970;22.868;2024-03-17T02:46:52;11.00;;;6.00;;
63807;SDS011;49961;43.970;22.868;2024-03-17T02:47:52;11.37;;;6.03;;
63807;SDS011;49961;43.970;22.868;2024-03-17T02:48:53;12.13;;;5.50;;
63807;SDS011;49961;43.970;22.868;2024-03-17T02:49:54;9.75;;;5.30;;
63807;SDS011;49961;43.970;22.868;2024-03-17T02:50:54;8.80;;;5.10;;
63807;SDS011;49961;43.970;22.868;2024-03-17T02:51:56;9.50;;;5.88;;
63807;SDS011;49961;43.970;22.868;2024-03-17T02:52:56;10.63;;;5.97;;
63807;SDS011;49961;43.970;22.868;2024-03-17T02:53:57;9.07;;;5.20;;
63807;SDS011;49961;43.970;22.868;2024-03-17T02:54:59;9.02;;;5.43;;
63807;SDS011;49961;43.970;22.868;2024-03-17T02:56:00;11.33;;;5.57;;
63807;SDS011;49961;43.970;22.868;2024-03-17T02:57:01;8.90;;;5.53;;
63807;SDS011;49961;43.970;22.868;2024-03-17T02:58:02;9.13;;;5.18;;
63807;SDS011;49961;43.970;22.868;2024-03-17T02:59:02;13.63;;;5.97;;
63807;SDS011;49961;43.970;22.868;2024-03-17T03:00:03;12.57;;;5.80;;
63807;SDS011;49961;43.970;22.868;2024-03-17T03:01:05;13.77;;;5.75;;
63807;SDS011;49961;43.970;22.868;2024-03-17T03:02:06;15.93;;;5.88;;
63807;SDS011;49961;43.970;22.868;2024-03-17T03:03:07;12.40;;;6.87;;
63807;SDS011;49961;43.970;22.868;2024-03-17T03:04:07;11.03;;;5.97;;
63807;SDS011;49961;43.970;22.868;2024-03-17T03:05:08;11.67;;;5.60;;
63807;SDS011;49961;43.970;22.868;2024-03-17T03:06:08;9.53;;;5.30;;
63807;SDS011;49961;43.970;22.868;2024-03-17T03:07:09;9.87;;;6.00;;
63807;SDS011;49961;43.970;22.868;2024-03-17T03:08:10;11.90;;;6.20;;
63807;SDS011;49961;43.970;22.868;2024-03-17T03:09:10;8.43;;;5.43;;
63807;SDS011;49961;43.970;22.868;2024-03-17T03:10:14;10.52;;;5.68;;
63807;SDS011;49961;43.970;22.868;2024-03-17T03:11:16;8.60;;;5.33;;
63807;SDS011;49961;43.970;22.868;2024-03-17T03:12:17;9.02;;;5.20;;
63807;SDS011;49961;43.970;22.868;2024-03-17T03:13:18;8.53;;;5.47;;
63807;SDS011;49961;43.970;22.868;2024-03-17T03:14:19;13.30;;;5.68;;
63807;SDS011;49961;43.970;22.868;2024-03-17T03:15:20;9.50;;;5.30;;
63807;SDS011;49961;43.970;22.868;2024-03-17T03:16:21;10.83;;;5.57;;
63807;SDS011;49961;43.970;22.868;2024-03-17T03:17:21;10.20;;;5.47;;
63807;SDS011;49961;43.970;22.868;2024-03-17T03:18:22;9.77;;;5.63;;
63807;SDS011;49961;43.970;22.868;2024-03-17T03:19:22;8.40;;;5.40;;
63807;SDS011;49961;43.970;22.868;2024-03-17T03:20:23;9.50;;;5.80;;
63807;SDS011;49961;43.970;22.868;2024-03-17T03:21:23;10.73;;;5.53;;
63807;SDS011;49961;43.970;22.868;2024-03-17T03:22:24;11.10;;;5.40;;
63807;SDS011;49961;43.970;22.868;2024-03-17T03:23:24;9.57;;;5.47;;
63807;SDS011;49961;43.970;22.868;2024-03-17T03:24:25;19.50;;;5.77;;
63807;SDS011;49961;43.970;22.868;2024-03-17T03:25:26;9.68;;;5.20;;
63807;SDS011;49961;43.970;22.868;2024-03-17T03:26:27;9.53;;;5.43;;
63807;SDS011;49961;43.970;22.868;2024-03-17T03:27:28;12.38;;;6.30;;
63807;SDS011;49961;43.970;22.868;2024-03-17T03:28:30;10.80;;;5.53;;
63807;SDS011;49961;43.970;22.868;2024-03-17T03:29:31;10.30;;;5.60;;
63807;SDS011;49961;43.970;22.868;2024-03-17T03:30:35;10.33;;;5.63;;
63807;SDS011;49961;43.970;22.868;2024-03-17T03:31:36;10.57;;;5.93;;
63807;SDS011;49961;43.970;22.868;2024-03-17T03:32:40;10.02;;;5.50;;
63807;SDS011;49961;43.970;22.868;2024-03-17T03:33:42;11.23;;;6.18;;
63807;SDS011;49961;43.970;22.868;2024-03-17T03:34:43;8.33;;;5.27;;
63807;SDS011;49961;43.970;22.868;2024-03-17T03:35:43;9.47;;;5.90;;
63807;SDS011;49961;43.970;22.868;2024-03-17T03:36:44;11.00;;;6.10;;
63807;SDS011;49961;43.970;22.868;2024-03-17T03:37:45;9.55;;;5.47;;
63807;SDS011;49961;43.970;22.868;2024-03-17T03:38:46;10.70;;;5.78;;
63807;SDS011;49961;43.970;22.868;2024-03-17T03:39:47;9.20;;;5.83;;
63807;SDS011;49961;43.970;22.868;2024-03-17T03:40:49;8.80;;;5.07;;
63807;SDS011;49961;43.970;22.868;2024-03-17T03:41:50;13.67;;;6.10;;
63807;SDS011;49961;43.970;22.868;2024-03-17T03:42:50;13.90;;;6.40;;
63807;SDS011;49961;43.970;22.868;2024-03-17T03:43:51;15.77;;;7.00;;
63807;SDS011;49961;43.970;22.868;2024-03-17T03:44:51;12.10;;;6.37;;
63807;SDS011;49961;43.970;22.868;2024-03-17T03:45:52;9.90;;;6.10;;
63807;SDS011;49961;43.970;22.868;2024-03-17T03:46:52;10.27;;;5.60;;
63807;SDS011;49961;43.970;22.868;2024-03-17T03:47:56;12.50;;;5.70;;
63807;SDS011;49961;43.970;22.868;2024-03-17T03:48:57;10.67;;;6.07;;
63807;SDS011;49961;43.970;22.868;2024-03-17T03:49:58;14.07;;;6.10;;
63807;SDS011;49961;43.970;22.868;2024-03-17T03:50:58;9.20;;;4.97;;
63807;SDS011;49961;43.970;22.868;2024-03-17T03:51:59;10.60;;;5.60;;
63807;SDS011;49961;43.970;22.868;2024-03-17T03:52:59;13.30;;;6.37;;
63807;SDS011;49961;43.970;22.868;2024-03-17T03:54:00;9.60;;;5.30;;
63807;SDS011;49961;43.970;22.868;2024-03-17T03:55:00;10.87;;;6.10;;
63807;SDS011;49961;43.970;22.868;2024-03-17T03:56:04;11.17;;;6.00;;
63807;SDS011;49961;43.970;22.868;2024-03-17T03:57:10;7.60;;;4.75;;
63807;SDS011;49961;43.970;22.868;2024-03-17T03:58:10;8.43;;;5.33;;
63807;SDS011;49961;43.970;22.868;2024-03-17T03:59:12;8.23;;;5.10;;
63807;SDS011;49961;43.970;22.868;2024-03-17T04:00:16;8.47;;;5.60;;
63807;SDS011;49961;43.970;22.868;2024-03-17T04:01:21;7.85;;;5.05;;
63807;SDS011;49961;43.970;22.868;2024-03-17T04:02:22;9.43;;;5.30;;
63807;SDS011;49961;43.970;22.868;2024-03-17T04:03:23;10.13;;;5.70;;
63807;SDS011;49961;43.970;22.868;2024-03-17T04:04:23;10.60;;;5.50;;
63807;SDS011;49961;43.970;22.868;2024-03-17T04:05:24;10.20;;;5.00;;
63807;SDS011;49961;43.970;22.868;2024-03-17T04:06:24;9.87;;;5.67;;
63807;SDS011;49961;43.970;22.868;2024-03-17T04:07:25;10.53;;;5.50;;
63807;SDS011;49961;43.970;22.868;2024-03-17T04:08:26;9.35;;;5.15;;
63807;SDS011;49961;43.970;22.868;2024-03-17T04:09:27;9.47;;;5.40;;
63807;SDS011;49961;43.970;22.868;2024-03-17T04:10:27;8.23;;;5.30;;
63807;SDS011;49961;43.970;22.868;2024-03-17T04:11:28;10.50;;;5.77;;
63807;SDS011;49961;43.970;22.868;2024-03-17T04:12:28;7.57;;;4.67;;
63807;SDS011;49961;43.970;22.868;2024-03-17T04:13:31;10.40;;;6.13;;
63807;SDS011;49961;43.970;22.868;2024-03-17T04:14:33;9.40;;;5.20;;
63807;SDS011;49961;43.970;22.868;2024-03-17T04:15:33;8.27;;;4.53;;
63807;SDS011;49961;43.970;22.868;2024-03-17T04:16:34;9.40;;;5.13;;
63807;SDS011;49961;43.970;22.868;2024-03-17T04:17:35;9.17;;;4.17;;
63807;SDS011;49961;43.970;22.868;2024-03-17T04:18:37;10.55;;;5.28;;
63807;SDS011;49961;43.970;22.868;2024-03-17T04:19:38;10.40;;;5.87;;
63807;SDS011;49961;43.970;22.868;2024-03-17T04:20:39;13.63;;;4.47;;
63807;SDS011;49961;43.970;22.868;2024-03-17T04:21:40;9.00;;;5.13;;
63807;SDS011;49961;43.970;22.868;2024-03-17T04:22:41;11.47;;;4.70;;
63807;SDS011;49961;43.970;22.868;2024-03-17T04:23:43;8.60;;;5.30;;
63807;SDS011;49961;43.970;22.868;2024-03-17T04:24:44;8.30;;;5.07;;
63807;SDS011;49961;43.970;22.868;2024-03-17T04:25:49;11.15;;;4.97;;
63807;SDS011;49961;43.970;22.868;2024-03-17T04:26:51;7.22;;;4.85;;
63807;SDS011;49961;43.970;22.868;2024-03-17T04:27:52;10.60;;;5.17;;
63807;SDS011;49961;43.970;22.868;2024-03-17T04:28:52;7.83;;;4.70;;
63807;SDS011;49961;43.970;22.868;2024-03-17T04:29:53;9.73;;;5.03;;
63807;SDS011;49961;43.970;22.868;2024-03-17T04:31:04;8.90;;;4.97;;
63807;SDS011;49961;43.970;22.868;2024-03-17T04:32:08;8.80;;;4.90;;
63807;SDS011;49961;43.970;22.868;2024-03-17T04:33:11;8.93;;;4.90;;
63807;SDS011;49961;43.970;22.868;2024-03-17T04:34:12;8.73;;;4.63;;
63807;SDS011;49961;43.970;22.868;2024-03-17T04:35:13;9.17;;;5.27;;
63807;SDS011;49961;43.970;22.868;2024-03-17T04:36:13;12.23;;;5.03;;
63807;SDS011;49961;43.970;22.868;2024-03-17T04:37:14;6.63;;;4.30;;
63807;SDS011;49961;43.970;22.868;2024-03-17T04:38:15;9.40;;;4.97;;
63807;SDS011;49961;43.970;22.868;2024-03-17T04:39:19;10.85;;;6.00;;
63807;SDS011;49961;43.970;22.868;2024-03-17T04:40:20;8.60;;;5.40;;
63807;SDS011;49961;43.970;22.868;2024-03-17T04:41:20;8.73;;;5.70;;
63807;SDS011;49961;43.970;22.868;2024-03-17T04:42:21;9.37;;;5.50;;
63807;SDS011;49961;43.970;22.868;2024-03-17T04:43:21;8.17;;;5.07;;
63807;SDS011;49961;43.970;22.868;2024-03-17T04:44:22;9.00;;;5.17;;
63807;SDS011;49961;43.970;22.868;2024-03-17T04:45:23;13.20;;;5.53;;
63807;SDS011;49961;43.970;22.868;2024-03-17T04:46:23;8.30;;;5.10;;
63807;SDS011;49961;43.970;22.868;2024-03-17T04:47:24;8.60;;;5.10;;
63807;SDS011;49961;43.970;22.868;2024-03-17T04:48:24;9.10;;;5.03;;
63807;SDS011;49961;43.970;22.868;2024-03-17T04:49:25;8.23;;;4.77;;
63807;SDS011;49961;43.970;22.868;2024-03-17T04:50:25;8.40;;;5.07;;
63807;SDS011;49961;43.970;22.868;2024-03-17T04:51:26;8.23;;;5.30;;
63807;SDS011;49961;43.970;22.868;2024-03-17T04:52:27;9.20;;;5.30;;
63807;SDS011;49961;43.970;22.868;2024-03-17T04:53:27;9.13;;;5.73;;
63807;SDS011;49961;43.970;22.868;2024-03-17T04:54:30;10.53;;;5.83;;
63807;SDS011;49961;43.970;22.868;2024-03-17T04:55:31;7.97;;;5.00;;
63807;SDS011;49961;43.970;22.868;2024-03-17T04:56:32;8.73;;;5.97;;
63807;SDS011;49961;43.970;22.868;2024-03-17T04:57:32;9.33;;;5.33;;
63807;SDS011;49961;43.970;22.868;2024-03-17T04:58:33;9.30;;;5.07;;
63807;SDS011;49961;43.970;22.868;2024-03-17T04:59:34;7.63;;;5.30;;
63807;SDS011;49961;43.970;22.868;2024-03-17T05:00:35;12.67;;;5.30;;
63807;SDS011;49961;43.970;22.868;2024-03-17T05:01:36;9.27;;;5.47;;
63807;SDS011;49961;43.970;22.868;2024-03-17T05:02:36;12.37;;;5.10;;
63807;SDS011;49961;43.970;22.868;2024-03-17T05:03:37;8.80;;;5.10;;
63807;SDS011;49961;43.970;22.868;2024-03-17T05:04:37;8.07;;;5.10;;
63807;SDS011;49961;43.970;22.868;2024-03-17T05:05:38;8.27;;;5.10;;
63807;SDS011;49961;43.970;22.868;2024-03-17T05:06:38;8.00;;;5.20;;
63807;SDS011;49961;43.970;22.868;2024-03-17T05:07:41;11.30;;;5.77;;
63807;SDS011;49961;43.970;22.868;2024-03-17T05:08:42;9.13;;;5.83;;
63807;SDS011;49961;43.970;22.868;2024-03-17T05:09:43;7.80;;;4.87;;
63807;SDS011;49961;43.970;22.868;2024-03-17T05:10:44;10.43;;;5.77;;
63807;SDS011;49961;43.970;22.868;2024-03-17T05:11:44;7.70;;;4.50;;
63807;SDS011;49961;43.970;22.868;2024-03-17T05:12:45;8.60;;;5.43;;
63807;SDS011;49961;43.970;22.868;2024-03-17T05:13:45;10.10;;;5.63;;
63807;SDS011;49961;43.970;22.868;2024-03-17T05:14:46;8.40;;;5.00;;
63807;SDS011;49961;43.970;22.868;2024-03-17T05:15:47;8.90;;;5.17;;
63807;SDS011;49961;43.970;22.868;2024-03-17T05:16:48;8.63;;;5.23;;
63807;SDS011;49961;43.970;22.868;2024-03-17T05:17:50;9.03;;;5.17;;
63807;SDS011;49961;43.970;22.868;2024-03-17T05:18:50;10.33;;;5.70;;
63807;SDS011;49961;43.970;22.868;2024-03-17T05:19:51;9.50;;;5.67;;
63807;SDS011;49961;43.970;22.868;2024-03-17T05:21:03;9.23;;;5.73;;
63807;SDS011;49961;43.970;22.868;2024-03-17T05:22:05;8.30;;;5.13;;
63807;SDS011;49961;43.970;22.868;2024-03-17T05:23:05;7.93;;;5.33;;
63807;SDS011;49961;43.970;22.868;2024-03-17T05:24:06;8.63;;;5.37;;
63807;SDS011;49961;43.970;22.868;2024-03-17T05:25:06;8.70;;;5.63;;
63807;SDS011;49961;43.970;22.868;2024-03-17T05:26:07;8.30;;;5.50;;
63807;SDS011;49961;43.970;22.868;2024-03-17T05:27:08;7.70;;;5.30;;
63807;SDS011;49961;43.970;22.868;2024-03-17T05:28:08;10.17;;;5.30;;
63807;SDS011;49961;43.970;22.868;2024-03-17T05:29:09;10.20;;;6.00;;
63807;SDS011;49961;43.970;22.868;2024-03-17T05:30:10;14.47;;;5.53;;
63807;SDS011;49961;43.970;22.868;2024-03-17T05:31:10;8.83;;;5.70;;
63807;SDS011;49961;43.970;22.868;2024-03-17T05:32:15;11.40;;;6.10;;
63807;SDS011;49961;43.970;22.868;2024-03-17T05:33:16;9.80;;;5.80;;
63807;SDS011;49961;43.970;22.868;2024-03-17T05:34:17;9.70;;;5.67;;
63807;SDS011;49961;43.970;22.868;2024-03-17T05:35:18;10.30;;;6.33;;
63807;SDS011;49961;43.970;22.868;2024-03-17T05:36:18;9.20;;;5.37;;
63807;SDS011;49961;43.970;22.868;2024-03-17T05:37:20;9.50;;;6.40;;
63807;SDS011;49961;43.970;22.868;2024-03-17T05:38:24;9.07;;;5.97;;
63807;SDS011;49961;43.970;22.868;2024-03-17T05:39:26;12.27;;;6.67;;
63807;SDS011;49961;43.970;22.868;2024-03-17T05:40:26;10.50;;;6.50;;
63807;SDS011;49961;43.970;22.868;2024-03-17T05:41:27;8.73;;;5.90;;
63807;SDS011;49961;43.970;22.868;2024-03-17T05:42:28;12.30;;;6.53;;
63807;SDS011;49961;43.970;22.868;2024-03-17T05:43:29;10.87;;;6.70;;
63807;SDS011;49961;43.970;22.868;2024-03-17T05:44:32;8.50;;;5.80;;
63807;SDS011;49961;43.970;22.868;2024-03-17T05:45:50;11.40;;;6.40;;
63807;SDS011;49961;43.970;22.868;2024-03-17T05:46:51;12.57;;;6.60;;
63807;SDS011;49961;43.970;22.868;2024-03-17T05:47:53;10.70;;;6.23;;
63807;SDS011;49961;43.970;22.868;2024-03-17T05:48:54;13.23;;;7.53;;
63807;SDS011;49961;43.970;22.868;2024-03-17T05:49:55;13.07;;;7.50;;
63807;SDS011;49961;43.970;22.868;2024-03-17T05:50:55;11.37;;;7.03;;
63807;SDS011;49961;43.970;22.868;2024-03-17T05:51:56;11.90;;;7.00;;
63807;SDS011;49961;43.970;22.868;2024-03-17T05:52:56;11.70;;;7.37;;
63807;SDS011;49961;43.970;22.868;2024-03-17T05:53:57;12.17;;;7.80;;
63807;SDS011;49961;43.970;22.868;2024-03-17T05:54:58;11.57;;;7.77;;
63807;SDS011;49961;43.970;22.868;2024-03-17T05:55:59;17.33;;;7.90;;
63807;SDS011;49961;43.970;22.868;2024-03-17T05:57:00;11.27;;;6.63;;
63807;SDS011;49961;43.970;22.868;2024-03-17T05:58:04;11.33;;;7.33;;
63807;SDS011;49961;43.970;22.868;2024-03-17T05:59:04;10.97;;;6.93;;
63807;SDS011;49961;43.970;22.868;2024-03-17T06:00:05;11.83;;;8.07;;
63807;SDS011;49961;43.970;22.868;2024-03-17T06:01:06;13.23;;;8.23;;
63807;SDS011;49961;43.970;22.868;2024-03-17T06:02:07;12.77;;;8.10;;